Cleveland, MS (38732)

1:53 AM CDT on April 25, 2015 (GMT -0500)
Cleveland Municipal | | Change Station
CLOSE
Current Station
Airport
Location: Cleveland Municipal Airport,
Elevation: 138 ft
Nearby Weather Stations
Active Advisory: Flood Advisory

Elev 138 ft 33.76 °N, 90.76 °W | Updated 18 minutes ago

Light Drizzle
Light Drizzle
62 °F
Feels Like 62 °F
N
6
Wind Variable Wind from North

Today
High -- | Low -- °F
--% Chance of Precip.
Yesterday
High -- | Low -- °F
Precip. -- in
6:20 AM 7:41 PM
Waxing Crescent, 43% visible
Pressure 29.79 in
Visibility 10.0 miles
Clouds Mostly Cloudy 1200 ft
Mostly Cloudy 4000 ft
Overcast 5500 ft
Dew Point 62 °F
Humidity 100%
Rainfall 0.01 in
Snow Depth Not available.
UV 0 out of 12
Pollen 6.30 out of 12
Air Quality Not available.
Flu Activity No Activity
METAR KRNV 250635Z AUTO 36005KT 10SM -DZ BKN012 BKN040 OVC055 17/17 A2979 RMK AO2 LTG DSNT NE THRU SE T01660166

More Conditions Fewer Conditions

Pressure 29.79 in
Visibility 10.0 miles
Clouds Mostly Cloudy 1200 ft
Mostly Cloudy 4000 ft
Overcast 5500 ft
Dew Point 62 °F
Humidity 100%
Rainfall 0.01 in
Snow Depth Not available.
UV 0 out of 12
Pollen 6.30 out of 12
Air Quality Not available.
Flu Activity No Activity
METAR KRNV 250635Z AUTO 36005KT 10SM -DZ BKN012 BKN040 OVC055 17/17 A2979 RMK AO2 LTG DSNT NE THRU SE T01660166

More Conditions Fewer Conditions

10-Day Weather Forecast

Almanac

Astronomy

Apr. 25, 2015 Rise Set
Actual Time
Civil Twilight
Nautical Twilight
Astronomical Twilight
Moon
Length of Visible Light
Length of Day
Tomorrow will be .
, % of the Moon is Illuminated

Today's Extremes

State Highs State Lows

Community

WunderPhotos

Upload Photos

1,816,624 photos uploaded!

WunderBlogs® & News

Nearby

Air Quality

  Air Quality AQ Index Pollutant
Not available.

Snow Depth

Station Depth Elevation

Earthquake Activity

City Distance Mag. Time & Date
Minimum magnitude displayed is 2.5.

Coastal Water Temperatures

Place Temperature

Stations

Nearby Weather Stations

Station Location Temp. Windchill Dew Point Humidity Wind Precip. Elev Updated Type
                   
Flood Advisory
Statement as of 12:25 PM CDT on April 24, 2015

The National Weather Service in Jackson has issued a
* Flood Advisory for
the Mississippi River near Arkansas City.
* Until late Saturday night.
* At 12:00 PM Friday the stage was 33.1 feet.
* Flood stage is 37.0 feet.
* Forecast... the river will rise to near 34.0 feet by Thursday April
30.


              Flood observed forecast 7 am crest
location stg stg day time Sat sun Mon crest time date

Lower Mississippi River
Arkansas City 37 33.1 Fri 12 PM 33.3 33.4 33.6 34.0 07 am 04/30




Lat... Lon 3340 9128 3357 9128 3413 9108 3412 9066
      3358 9106 3340 9105